Haisea Guardian — CFN6634 — position and weather

sailwx.info

Track history (hours):
 
Tides and Currents Weather Stations Pressure Air Temp Water Temp Dewpoint Dewpoint Depression Visibility Wind Speed Wind Dir Waves Ship Positions

Haisea Guardian

Last reported at 2017-Dec-17 05:55 UTC. Time now 2017-Dec-17 06:22 UTC.
Position N 49°10' W 122°55'.

Length 20 m; draft 2.8 m.

Type: Tow > 200 m length. MMSI: 316003669.

Date/timePositionNaut miles runAvg speedWind from/ knotsBaromVisibWave heightAir tempDewpointWater temp
2017-Dec-17 05:55N 49°10' W 122°55'0 0.0
2017-Dec-17 05:28N 49°10' W 122°55'0 0.0
2017-Dec-17 05:00N 49°10' W 122°55'0 0.0
2017-Dec-17 04:30N 49°10' W 122°55'0 0.0
2017-Dec-17 03:58N 49°10' W 122°55'0 0.0
2017-Dec-17 03:31N 49°10' W 122°55'0 0.0
2017-Dec-17 03:01N 49°10' W 122°55'0 0.0
2017-Dec-17 02:30N 49°10' W 122°55'0 0.1
2017-Dec-17 02:01N 49°10' W 122°55'0 0.1
2017-Dec-17 01:28N 49°10' W 122°55'0 0.0
2017-Dec-17 00:59N 49°10' W 122°55'0 0.0
2017-Dec-17 00:30N 49°10' W 122°55'0 0.0
2017-Dec-17 00:01N 49°10' W 122°55'0 0.0
2017-Dec-16 23:31N 49°10' W 122°55'0 0.0
2017-Dec-16 23:00N 49°10' W 122°55'0 0.0
2017-Dec-16 22:25N 49°10' W 122°55'0 0.0
2017-Dec-16 22:00N 49°10' W 122°55'0 0.1
2017-Dec-16 21:28N 49°10' W 122°55'2 4.0
2017-Dec-16 21:00N 49°10' W 122°58'2 4.6
2017-Dec-16 20:30N 49°09' W 123°02'3 6.7
2017-Dec-16 20:00N 49°07' W 123°06'3 6.1
2017-Dec-16 19:30N 49°07' W 123°10'3 6.0
2017-Dec-16 19:01N 49°08' W 123°15'4 7.0
2017-Dec-16 18:28N 49°06' W 123°20'4 7.7
2017-Dec-16 17:59N 49°04' W 123°25'4 8.6
2017-Dec-16 17:29N 49°02' W 123°31'4 7.6
2017-Dec-16 17:00N 49°00' W 123°36'3 7.1
2017-Dec-16 16:30N 48°57' W 123°37'4 8.1
2017-Dec-16 16:01N 48°53' W 123°37'1 1.8
2017-Dec-16 15:31N 48°53' W 123°38'0 0.6
2017-Dec-16 15:00N 48°52' W 123°38'0 0.7
2017-Dec-16 14:31N 48°53' W 123°37'1 1.8
2017-Dec-16 14:00N 48°53' W 123°36'1 1.6
2017-Dec-16 13:31N 48°53' W 123°36'1 2.8
2017-Dec-16 13:00N 48°55' W 123°36'1 3.0
2017-Dec-16 12:31N 48°56' W 123°37'2 3.3
2017-Dec-16 11:51N 48°58' W 123°37'2 5.0
2017-Dec-16 11:30N 49°00' W 123°36'2 3.8
2017-Dec-16 10:59N 49°02' W 123°34'2 4.2
2017-Dec-16 10:25N 49°03' W 123°31'2 4.5
2017-Dec-16 10:00N 49°04' W 123°28'2 5.0
2017-Dec-16 09:30N 49°05' W 123°25'2 4.3
2017-Dec-16 08:58N 49°05' W 123°21'3 5.5
2017-Dec-16 08:23N 49°07' W 123°17'2 6.5
2017-Dec-16 08:00N 49°08' W 123°14'3 6.5
2017-Dec-16 07:30N 49°07' W 123°09'3 6.7
2017-Dec-16 07:00N 49°08' W 123°04'4 7.7
2017-Dec-16 06:30N 49°09' W 122°59'1 2.3
2017-Dec-16 06:01N 49°09' W 122°57'0 0.0
2017-Dec-16 04:56N 49°09' W 122°57'0 0.2
2017-Dec-16 04:27N 49°09' W 122°58'0 0.5
2017-Dec-16 04:01N 49°09' W 122°57'4 6.9
2017-Dec-16 03:30N 49°12' W 122°54'2 4.1
2017-Dec-16 03:00N 49°10' W 122°55'1 2.5
2017-Dec-16 02:30N 49°09' W 122°57'2 4.4
2017-Dec-16 02:01N 49°09' W 123°00'2 4.4
2017-Dec-16 01:31N 49°08' W 123°03'2 4.6
2017-Dec-16 01:01N 49°07' W 123°06'2 5.0
2017-Dec-16 00:31N 49°07' W 123°09'2 3.7
2017-Dec-16 00:00N 49°07' W 123°12'3 6.7
2017-Dec-15 23:30N 49°07' W 123°07'510.0
2017-Dec-15 23:00N 49°09' W 123°01'3 5.7
2017-Dec-15 22:30N 49°10' W 122°56'1 0.2
2017-Dec-15 18:58N 49°10' W 122°55'0 0.0
2017-Dec-15 18:31N 49°10' W 122°55'0 0.0
2017-Dec-15 16:22N 49°10' W 122°55'0 0.0
2017-Dec-15 15:58N 49°10' W 122°55'0 0.0
2017-Dec-15 15:14N 49°10' W 122°55'0 0.0
2017-Dec-15 14:52N 49°10' W 122°55'0 0.0
2017-Dec-15 14:31N 49°10' W 122°55'0 0.0
2017-Dec-15 14:01N 49°10' W 122°55'0 0.0
2017-Dec-15 13:30N 49°10' W 122°55'0 0.0
2017-Dec-15 13:00N 49°10' W 122°55'0 0.0
2017-Dec-15 12:31N 49°10' W 122°55'0 0.0
2017-Dec-15 11:59N 49°10' W 122°55'0 0.0
2017-Dec-15 11:30N 49°10' W 122°55'0 0.0
2017-Dec-15 10:55N 49°10' W 122°55'0 0.0
2017-Dec-15 10:25N 49°10' W 122°55'0 0.0
2017-Dec-15 09:51N 49°10' W 122°55'0 0.0
2017-Dec-15 08:39N 49°10' W 122°55'0 0.0
2017-Dec-15 07:24N 49°10' W 122°55'0 0.2
2017-Dec-15 07:01N 49°10' W 122°55'0 0.0
2017-Dec-15 06:30N 49°10' W 122°55'0 0.0
2017-Dec-15 06:01N 49°10' W 122°55'0 0.0
2017-Dec-15 05:30N 49°10' W 122°55'0 0.0
2017-Dec-15 05:00N 49°10' W 122°55'0 0.0
2017-Dec-15 04:31N 49°10' W 122°55'0 0.0
2017-Dec-15 04:01N 49°10' W 122°55'4 1.2
2017-Dec-15 01:00N 49°09' W 123°01'1 2.7
2017-Dec-15 00:30N 49°09' W 123°03'35 4.0
2017-Dec-14 15:51N 49°10' W 123°56'0 0.0
2017-Dec-14 14:55N 49°10' W 123°56'13 3.8
2017-Dec-14 11:24N 49°10' W 123°35'2 4.8
2017-Dec-14 10:58N 49°10' W 123°33'2 4.9
2017-Dec-14 10:30N 49°09' W 123°29'2 4.6
2017-Dec-14 09:59N 49°08' W 123°26'2 4.4
2017-Dec-14 09:29N 49°07' W 123°23'3 5.6
2017-Dec-14 08:55N 49°06' W 123°18'3 6.3
2017-Dec-14 08:30N 49°08' W 123°15'3 6.6
2017-Dec-14 07:59N 49°07' W 123°09'4 7.1
2017-Dec-14 07:29N 49°08' W 123°04'4 7.7
2017-Dec-14 07:00N 49°09' W 122°59'2 3.3
2017-Dec-14 06:30N 49°10' W 122°57'0 0.0
2017-Dec-14 04:35N 49°10' W 122°57'0 0.0
2017-Dec-14 03:43N 49°10' W 122°57'0 0.0
2017-Dec-14 03:28N 49°10' W 122°57'0 0.0
2017-Dec-14 02:12N 49°10' W 122°57'0 0.7
2017-Dec-14 02:00N 49°09' W 122°57'2 3.1
2017-Dec-14 01:31N 49°09' W 122°59'2 4.6
2017-Dec-14 01:01N 49°09' W 123°03'2 3.2
2017-Dec-14 00:30N 49°07' W 123°04'1 3.0
2017-Dec-14 00:01N 49°07' W 123°06'2 3.6
2017-Dec-13 23:30N 49°07' W 123°09'3 5.4
2017-Dec-13 23:01N 49°08' W 123°13'2 4.7
2017-Dec-13 22:30N 49°07' W 123°16'2 4.5
2017-Dec-13 22:01N 49°06' W 123°20'2 4.9
2017-Dec-13 21:30N 49°07' W 123°23'3 6.4
2017-Dec-13 21:00N 49°08' W 123°28'4 8.9
2017-Dec-13 20:31N 49°10' W 123°34'14 3.0
2017-Dec-13 15:38N 49°10' W 123°56'14 3.0
2017-Dec-13 11:04N 49°10' W 123°35'0 4.4
2017-Dec-13 10:58N 49°10' W 123°34'2 4.5
2017-Dec-13 10:30N 49°09' W 123°31'2 4.4
2017-Dec-13 10:00N 49°08' W 123°28'2 4.6
2017-Dec-13 09:30N 49°07' W 123°25'3 6.1
2017-Dec-13 09:00N 49°06' W 123°21'3 6.3
2017-Dec-13 08:31N 49°07' W 123°16'4 6.7
2017-Dec-13 07:59N 49°07' W 123°11'4 7.6
2017-Dec-13 07:30N 49°07' W 123°05'4 8.1
2017-Dec-13 07:00N 49°09' W 123°00'2 4.2
2017-Dec-13 06:30N 49°10' W 122°57'0 0.0
2017-Dec-13 06:00N 49°10' W 122°57'0 0.0
2017-Dec-13 05:30N 49°10' W 122°57'0 0.0
2017-Dec-13 05:00N 49°10' W 122°57'0 0.0
2017-Dec-13 04:30N 49°10' W 122°57'0 0.0
2017-Dec-13 04:01N 49°10' W 122°57'0 0.0
2017-Dec-13 03:30N 49°10' W 122°57'0 0.0
2017-Dec-13 03:00N 49°10' W 122°57'0 0.0
2017-Dec-13 01:04N 49°10' W 122°57'0 0.0
2017-Dec-13 00:55N 49°10' W 122°57'0 0.0
2017-Dec-13 00:31N 49°10' W 122°57'0 0.0
2017-Dec-13 00:01N 49°10' W 122°57'0 0.0
2017-Dec-12 23:30N 49°10' W 122°57'0 0.0
2017-Dec-12 22:57N 49°10' W 122°57'0 0.0
2017-Dec-12 22:24N 49°10' W 122°57'0 0.0
2017-Dec-12 21:54N 49°10' W 122°57'0 0.0
2017-Dec-12 21:28N 49°10' W 122°57'0 0.0
2017-Dec-12 19:03N 49°10' W 122°57'0 0.0
2017-Dec-12 19:00N 49°10' W 122°57'0 0.4
2017-Dec-12 18:31N 49°09' W 122°57'4 8.3
2017-Dec-12 18:01N 49°08' W 123°03'4 7.9
2017-Dec-12 17:30N 49°06' W 123°09'2 2.8
2017-Dec-12 16:44N 49°07' W 123°11'0 0.0
2017-Dec-12 16:26N 49°07' W 123°11'0 0.0
2017-Dec-12 15:59N 49°07' W 123°11'0 0.0
2017-Dec-12 15:22N 49°07' W 123°11'0 0.0
2017-Dec-12 13:00N 49°07' W 123°11'0 0.0
2017-Dec-12 10:17N 49°07' W 123°11'0 0.0
2017-Dec-12 09:56N 49°07' W 123°11'0 0.0
2017-Dec-12 09:10N 49°07' W 123°11'0 1.1
2017-Dec-12 08:59N 49°07' W 123°11'5 9.7
2017-Dec-12 08:30N 49°08' W 123°04'5 9.5
2017-Dec-12 07:59N 49°09' W 122°57'0 0.6
2017-Dec-12 07:31N 49°10' W 122°57'0 0.0
2017-Dec-12 06:59N 49°10' W 122°57'0 0.0
2017-Dec-12 06:30N 49°10' W 122°57'0 0.0
2017-Dec-12 04:31N 49°10' W 122°57'0 3.5
2017-Dec-12 04:30N 49°10' W 122°57'0 0.4
2017-Dec-12 03:58N 49°09' W 122°57'0 0.0
2017-Dec-12 03:31N 49°09' W 122°57'0 0.0
2017-Dec-12 03:01N 49°09' W 122°57'0 0.0
2017-Dec-12 02:31N 49°09' W 122°57'1 2.8
2017-Dec-12 02:01N 49°10' W 122°55'0 0.1
2017-Dec-12 01:31N 49°10' W 122°55'0 0.0
2017-Dec-12 01:01N 49°10' W 122°55'0 0.1
2017-Dec-12 00:31N 49°10' W 122°55'0 0.1
2017-Dec-12 00:00N 49°10' W 122°55'0 0.0
2017-Dec-11 23:31N 49°10' W 122°55'0 0.0
2017-Dec-11 23:01N 49°10' W 122°55'0 0.0
2017-Dec-11 22:31N 49°10' W 122°55'0 0.0
2017-Dec-11 22:00N 49°10' W 122°55'0 0.0
2017-Dec-11 21:30N 49°10' W 122°55'0 0.0
2017-Dec-11 21:00N 49°10' W 122°55'0 0.0
2017-Dec-11 20:31N 49°10' W 122°55'0 0.0
2017-Dec-11 20:00N 49°10' W 122°55'0 0.1
2017-Dec-11 19:30N 49°10' W 122°55'0 0.0
2017-Dec-11 19:01N 49°10' W 122°55'0 0.1
2017-Dec-11 18:30N 49°10' W 122°55'0 0.0
2017-Dec-11 18:00N 49°10' W 122°55'0 0.0
2017-Dec-11 17:28N 49°10' W 122°55'0 0.0
2017-Dec-11 16:59N 49°10' W 122°55'0 0.0
2017-Dec-11 16:30N 49°10' W 122°55'0 0.0
2017-Dec-11 16:00N 49°10' W 122°55'0 0.0
2017-Dec-11 15:25N 49°10' W 122°55'0 0.0
2017-Dec-11 15:00N 49°10' W 122°55'0 0.0
2017-Dec-11 14:30N 49°10' W 122°55'0 0.0
2017-Dec-11 14:00N 49°10' W 122°55'0 0.1
2017-Dec-11 13:30N 49°10' W 122°55'0 0.1
2017-Dec-11 13:00N 49°10' W 122°55'0 0.0
2017-Dec-11 12:30N 49°10' W 122°55'0 0.0
2017-Dec-11 12:00N 49°10' W 122°55'0 0.0
2017-Dec-11 11:30N 49°10' W 122°55'0 0.0
2017-Dec-11 11:01N 49°10' W 122°55'0 0.0
2017-Dec-11 10:30N 49°10' W 122°55'0 0.0
2017-Dec-11 10:00N 49°10' W 122°55'0 0.0
2017-Dec-11 09:30N 49°10' W 122°55'0 0.0
2017-Dec-11 09:00N 49°10' W 122°55'0 0.1
2017-Dec-11 08:28N 49°10' W 122°55'0 0.1
2017-Dec-11 08:00N 49°10' W 122°55'0 0.0
2017-Dec-11 07:29N 49°10' W 122°55'0 0.0
2017-Dec-11 06:59N 49°10' W 122°55'0 0.0
2017-Dec-11 06:28N 49°10' W 122°55'0 0.0
2017-Dec-11 06:00N 49°10' W 122°55'0 0.0
2017-Dec-11 05:30N 49°10' W 122°55'0 0.0
2017-Dec-11 05:00N 49°10' W 122°55'0 0.0
2017-Dec-11 04:30N 49°10' W 122°55'0 0.0
2017-Dec-11 04:00N 49°10' W 122°55'0 0.0
2017-Dec-11 03:29N 49°10' W 122°55'0 0.0
2017-Dec-11 03:00N 49°10' W 122°55'0 0.0
2017-Dec-11 02:29N 49°10' W 122°55'0 0.0
2017-Dec-11 02:00N 49°10' W 122°55'0 0.0
2017-Dec-11 01:30N 49°10' W 122°55'0 0.1
2017-Dec-11 01:00N 49°10' W 122°55'0 0.1
2017-Dec-11 00:30N 49°10' W 122°55'0 0.0
2017-Dec-11 00:00N 49°10' W 122°55'0 0.0
2017-Dec-10 23:30N 49°10' W 122°55'0 0.0
2017-Dec-10 23:00N 49°10' W 122°55'0 0.0
2017-Dec-10 22:30N 49°10' W 122°55'0 0.0
2017-Dec-10 22:01N 49°10' W 122°55'0 0.0
2017-Dec-10 21:31N 49°10' W 122°55'0 0.0
2017-Dec-10 21:01N 49°10' W 122°55'0 0.0
2017-Dec-10 20:30N 49°10' W 122°55'0 0.0
2017-Dec-10 19:04N 49°10' W 122°55'0 0.0
2017-Dec-10 17:18N 49°10' W 122°55'0 0.1
2017-Dec-10 16:50N 49°10' W 122°55'0 0.0
2017-Dec-10 16:24N 49°10' W 122°55'0 0.0
2017-Dec-10 15:58N 49°10' W 122°55'0 0.0
2017-Dec-10 15:30N 49°10' W 122°55'0 0.0
2017-Dec-10 14:59N 49°10' W 122°55'0 0.0
2017-Dec-10 14:29N 49°10' W 122°55'0 0.0
2017-Dec-10 14:00N 49°10' W 122°55'0 0.0
2017-Dec-10 13:28N 49°10' W 122°55'0 0.0
2017-Dec-10 12:59N 49°10' W 122°55'0 0.0
2017-Dec-10 12:28N 49°10' W 122°55'0 0.0
2017-Dec-10 12:00N 49°10' W 122°55'0 0.0
2017-Dec-10 11:30N 49°10' W 122°55'0 0.0
2017-Dec-10 11:00N 49°10' W 122°55'0 0.1
2017-Dec-10 10:30N 49°10' W 122°55'0 0.1
2017-Dec-10 09:59N 49°10' W 122°55'0 0.0
2017-Dec-10 09:29N 49°10' W 122°55'0 0.0
2017-Dec-10 09:00N 49°10' W 122°55'0 0.1
2017-Dec-10 08:31N 49°10' W 122°55'0 0.1
2017-Dec-10 08:00N 49°10' W 122°55'0 0.0
2017-Dec-10 07:31N 49°10' W 122°55'0 0.0
2017-Dec-10 07:01N 49°10' W 122°55'0 0.0
2017-Dec-10 06:30N 49°10' W 122°55'0 0.0
2017-Dec-10 06:00N 49°10' W 122°55'0 0.0
2017-Dec-10 05:31N 49°10' W 122°55'0 0.0
2017-Dec-10 05:00N 49°10' W 122°55'0 0.0
2017-Dec-10 04:30N 49°10' W 122°55'0 0.0
2017-Dec-10 04:00N 49°10' W 122°55'0 0.0
2017-Dec-10 03:31N 49°10' W 122°55'0 0.0
2017-Dec-10 03:00N 49°10' W 122°55'0 0.0
2017-Dec-10 02:30N 49°10' W 122°55'0 0.0
2017-Dec-10 02:01N 49°10' W 122°55'0 0.0
2017-Dec-10 01:27N 49°10' W 122°55'0 0.0
2017-Dec-10 01:01N 49°10' W 122°55'0 0.0
2017-Dec-10 00:30N 49°10' W 122°55'0 0.0
2017-Dec-10 00:00N 49°10' W 122°55'0 0.0
2017-Dec-09 23:30N 49°10' W 122°55'0 0.0
2017-Dec-09 23:00N 49°10' W 122°55'0 0.1
2017-Dec-09 22:29N 49°10' W 122°55'0 0.1
2017-Dec-09 22:00N 49°10' W 122°55'0 0.0
2017-Dec-09 21:29N 49°10' W 122°55'0 0.0
2017-Dec-09 15:31N 49°10' W 122°55'0 0.0
2017-Dec-09 15:13N 49°10' W 122°55'0 1.0
2017-Dec-09 15:01N 49°10' W 122°56'2 4.2
2017-Dec-09 14:30N 49°09' W 122°59'3 5.6
2017-Dec-09 14:01N 49°09' W 123°03'4 7.2
2017-Dec-09 13:30N 49°07' W 123°07'3 6.8
2017-Dec-09 13:00N 49°08' W 123°12'3 6.2
2017-Dec-09 12:31N 49°07' W 123°17'2 3.4
2017-Dec-09 12:01N 49°08' W 123°19'4 8.3
2017-Dec-09 11:30N 49°12' W 123°18'4 7.4
2017-Dec-09 11:01N 49°16' W 123°18'0 0.4
2017-Dec-09 10:31N 49°15' W 123°18'0 0.3
2017-Dec-09 10:00N 49°16' W 123°18'1 2.8
2017-Dec-09 09:31N 49°16' W 123°20'3 6.2
2017-Dec-09 09:00N 49°15' W 123°24'3 6.2
2017-Dec-09 08:30N 49°15' W 123°29'3 6.4
2017-Dec-09 07:57N 49°14' W 123°34'3 6.0
2017-Dec-09 07:30N 49°14' W 123°39'7 0.7
2017-Dec-08 21:50N 49°09' W 123°31'3 5.3
2017-Dec-08 21:13N 49°08' W 123°26'1 5.1
2017-Dec-08 21:00N 49°07' W 123°25'3 5.1
2017-Dec-08 20:26N 49°06' W 123°21'2 5.0
2017-Dec-08 20:00N 49°07' W 123°17'3 5.3
2017-Dec-08 19:27N 49°08' W 123°13'2 2.7
2017-Dec-08 18:48N 49°07' W 123°11'1 4.1
2017-Dec-08 18:30N 49°07' W 123°09'2 3.7
2017-Dec-08 18:00N 49°07' W 123°06'3 3.3
2017-Dec-08 17:12N 49°08' W 123°03'1 3.5
2017-Dec-08 16:52N 49°09' W 123°02'1 3.4
2017-Dec-08 16:30N 49°09' W 122°60'2 3.2
2017-Dec-08 16:00N 49°09' W 122°57'0 0.2
2017-Dec-08 15:22N 49°09' W 122°57'1 3.6
2017-Dec-08 15:00N 49°10' W 122°56'3 5.2
2017-Dec-08 14:30N 49°13' W 122°54'0 0.2
2017-Dec-08 14:00N 49°12' W 122°54'1 0.1
2017-Dec-08 08:45N 49°12' W 122°55'0 0.1
2017-Dec-08 04:40N 49°12' W 122°55'1 3.7
2017-Dec-08 04:30N 49°11' W 122°55'1 1.0
2017-Dec-08 04:00N 49°12' W 122°54'1 1.1
2017-Dec-08 03:30N 49°11' W 122°55'2 4.2
2017-Dec-08 03:00N 49°09' W 122°57'2 3.5
2017-Dec-08 02:30N 49°09' W 122°59'3 5.5
2017-Dec-08 02:00N 49°08' W 123°03'3 5.2
2017-Dec-08 01:30N 49°07' W 123°07'3 4.8
2017-Dec-08 00:58N 49°07' W 123°10'2 4.9
2017-Dec-08 00:30N 49°08' W 123°14'3 5.0
2017-Dec-07 23:55N 49°06' W 123°17'5 5.7
2017-Dec-07 23:06N 49°04' W 123°24'15 2.4
2017-Dec-07 16:56N 48°53' W 123°37'1 3.1
2017-Dec-07 16:30N 48°54' W 123°36'6 6.4
2017-Dec-07 15:34N 48°60' W 123°36'4 4.6
2017-Dec-07 14:47N 49°03' W 123°35'1 2.8
2017-Dec-07 14:19N 49°05' W 123°35'1 0.3
2017-Dec-07 11:09N 49°04' W 123°34'1 2.9
2017-Dec-07 10:42N 49°03' W 123°33'1 2.8
2017-Dec-07 10:28N 49°03' W 123°32'2 2.9
2017-Dec-07 09:56N 49°03' W 123°29'1 3.1
2017-Dec-07 09:27N 49°04' W 123°27'2 3.6
2017-Dec-07 09:00N 49°04' W 123°25'3 5.5
2017-Dec-07 08:30N 49°05' W 123°21'4 7.8
2017-Dec-07 07:58N 49°07' W 123°15'4 6.8
2017-Dec-07 07:26N 49°07' W 123°10'4 7.2
2017-Dec-07 06:56N 49°07' W 123°04'3 7.1
2017-Dec-07 06:30N 49°09' W 123°01'2 4.6
2017-Dec-07 06:00N 49°09' W 122°57'  
Track history (hours):
 
Tides and Currents Weather Stations Pressure Air Temp Water Temp Dewpoint Dewpoint Depression Visibility Wind Speed Wind Dir Waves Ship Positions

Haisea Guardian

Last reported at 2017-Dec-17 05:55 UTC. Time now 2017-Dec-17 06:22 UTC.
Position N 49°10' W 122°55'.

Length 20 m; draft 2.8 m.

Type: Tow > 200 m length. MMSI: 316003669.

Date/timePositionNaut miles runAvg speedWind from/ knotsBaromVisibWave heightAir tempDewpointWater temp
2017-Dec-17 05:55N 49°10' W 122°55'0 0.0
2017-Dec-17 05:28N 49°10' W 122°55'0 0.0
2017-Dec-17 05:00N 49°10' W 122°55'0 0.0
2017-Dec-17 04:30N 49°10' W 122°55'0 0.0
2017-Dec-17 03:58N 49°10' W 122°55'0 0.0
2017-Dec-17 03:31N 49°10' W 122°55'0 0.0
2017-Dec-17 03:01N 49°10' W 122°55'0 0.0
2017-Dec-17 02:30N 49°10' W 122°55'0 0.1
2017-Dec-17 02:01N 49°10' W 122°55'0 0.1
2017-Dec-17 01:28N 49°10' W 122°55'0 0.0
2017-Dec-17 00:59N 49°10' W 122°55'0 0.0
2017-Dec-17 00:30N 49°10' W 122°55'0 0.0
2017-Dec-17 00:01N 49°10' W 122°55'0 0.0
2017-Dec-16 23:31N 49°10' W 122°55'0 0.0
2017-Dec-16 23:00N 49°10' W 122°55'0 0.0
2017-Dec-16 22:25N 49°10' W 122°55'0 0.0
2017-Dec-16 22:00N 49°10' W 122°55'0 0.1
2017-Dec-16 21:28N 49°10' W 122°55'2 4.0
2017-Dec-16 21:00N 49°10' W 122°58'2 4.6
2017-Dec-16 20:30N 49°09' W 123°02'3 6.7
2017-Dec-16 20:00N 49°07' W 123°06'3 6.1
2017-Dec-16 19:30N 49°07' W 123°10'3 6.0
2017-Dec-16 19:01N 49°08' W 123°15'4 7.0
2017-Dec-16 18:28N 49°06' W 123°20'4 7.7
2017-Dec-16 17:59N 49°04' W 123°25'4 8.6
2017-Dec-16 17:29N 49°02' W 123°31'4 7.6
2017-Dec-16 17:00N 49°00' W 123°36'3 7.1
2017-Dec-16 16:30N 48°57' W 123°37'4 8.1
2017-Dec-16 16:01N 48°53' W 123°37'1 1.8
2017-Dec-16 15:31N 48°53' W 123°38'0 0.6
2017-Dec-16 15:00N 48°52' W 123°38'0 0.7
2017-Dec-16 14:31N 48°53' W 123°37'1 1.8
2017-Dec-16 14:00N 48°53' W 123°36'1 1.6
2017-Dec-16 13:31N 48°53' W 123°36'1 2.8
2017-Dec-16 13:00N 48°55' W 123°36'1 3.0
2017-Dec-16 12:31N 48°56' W 123°37'2 3.3
2017-Dec-16 11:51N 48°58' W 123°37'2 5.0
2017-Dec-16 11:30N 49°00' W 123°36'2 3.8
2017-Dec-16 10:59N 49°02' W 123°34'2 4.2
2017-Dec-16 10:25N 49°03' W 123°31'2 4.5
2017-Dec-16 10:00N 49°04' W 123°28'2 5.0
2017-Dec-16 09:30N 49°05' W 123°25'2 4.3
2017-Dec-16 08:58N 49°05' W 123°21'3 5.5
2017-Dec-16 08:23N 49°07' W 123°17'2 6.5
2017-Dec-16 08:00N 49°08' W 123°14'3 6.5
2017-Dec-16 07:30N 49°07' W 123°09'3 6.7
2017-Dec-16 07:00N 49°08' W 123°04'4 7.7
2017-Dec-16 06:30N 49°09' W 122°59'1 2.3
2017-Dec-16 06:01N 49°09' W 122°57'0 0.0
2017-Dec-16 04:56N 49°09' W 122°57'0 0.2
2017-Dec-16 04:27N 49°09' W 122°58'0 0.5
2017-Dec-16 04:01N 49°09' W 122°57'4 6.9
2017-Dec-16 03:30N 49°12' W 122°54'2 4.1
2017-Dec-16 03:00N 49°10' W 122°55'1 2.5
2017-Dec-16 02:30N 49°09' W 122°57'2 4.4
2017-Dec-16 02:01N 49°09' W 123°00'2 4.4
2017-Dec-16 01:31N 49°08' W 123°03'2 4.6
2017-Dec-16 01:01N 49°07' W 123°06'2 5.0
2017-Dec-16 00:31N 49°07' W 123°09'2 3.7
2017-Dec-16 00:00N 49°07' W 123°12'3 6.7
2017-Dec-15 23:30N 49°07' W 123°07'510.0
2017-Dec-15 23:00N 49°09' W 123°01'3 5.7
2017-Dec-15 22:30N 49°10' W 122°56'1 0.2
2017-Dec-15 18:58N 49°10' W 122°55'0 0.0
2017-Dec-15 18:31N 49°10' W 122°55'0 0.0
2017-Dec-15 16:22N 49°10' W 122°55'0 0.0
2017-Dec-15 15:58N 49°10' W 122°55'0 0.0
2017-Dec-15 15:14N 49°10' W 122°55'0 0.0
2017-Dec-15 14:52N 49°10' W 122°55'0 0.0
2017-Dec-15 14:31N 49°10' W 122°55'0 0.0
2017-Dec-15 14:01N 49°10' W 122°55'0 0.0
2017-Dec-15 13:30N 49°10' W 122°55'0 0.0
2017-Dec-15 13:00N 49°10' W 122°55'0 0.0
2017-Dec-15 12:31N 49°10' W 122°55'0 0.0
2017-Dec-15 11:59N 49°10' W 122°55'0 0.0
2017-Dec-15 11:30N 49°10' W 122°55'0 0.0
2017-Dec-15 10:55N 49°10' W 122°55'0 0.0
2017-Dec-15 10:25N 49°10' W 122°55'0 0.0
2017-Dec-15 09:51N 49°10' W 122°55'0 0.0
2017-Dec-15 08:39N 49°10' W 122°55'0 0.0
2017-Dec-15 07:24N 49°10' W 122°55'0 0.2
2017-Dec-15 07:01N 49°10' W 122°55'0 0.0
2017-Dec-15 06:30N 49°10' W 122°55'0 0.0
2017-Dec-15 06:01N 49°10' W 122°55'0 0.0
2017-Dec-15 05:30N 49°10' W 122°55'0 0.0
2017-Dec-15 05:00N 49°10' W 122°55'0 0.0
2017-Dec-15 04:31N 49°10' W 122°55'0 0.0
2017-Dec-15 04:01N 49°10' W 122°55'4 1.2
2017-Dec-15 01:00N 49°09' W 123°01'1 2.7
2017-Dec-15 00:30N 49°09' W 123°03'35 4.0
2017-Dec-14 15:51N 49°10' W 123°56'0 0.0
2017-Dec-14 14:55N 49°10' W 123°56'13 3.8
2017-Dec-14 11:24N 49°10' W 123°35'2 4.8
2017-Dec-14 10:58N 49°10' W 123°33'2 4.9
2017-Dec-14 10:30N 49°09' W 123°29'2 4.6
2017-Dec-14 09:59N 49°08' W 123°26'2 4.4
2017-Dec-14 09:29N 49°07' W 123°23'3 5.6
2017-Dec-14 08:55N 49°06' W 123°18'3 6.3
2017-Dec-14 08:30N 49°08' W 123°15'3 6.6
2017-Dec-14 07:59N 49°07' W 123°09'4 7.1
2017-Dec-14 07:29N 49°08' W 123°04'4 7.7
2017-Dec-14 07:00N 49°09' W 122°59'2 3.3
2017-Dec-14 06:30N 49°10' W 122°57'0 0.0
2017-Dec-14 04:35N 49°10' W 122°57'0 0.0
2017-Dec-14 03:43N 49°10' W 122°57'0 0.0
2017-Dec-14 03:28N 49°10' W 122°57'0 0.0
2017-Dec-14 02:12N 49°10' W 122°57'0 0.7
2017-Dec-14 02:00N 49°09' W 122°57'2 3.1
2017-Dec-14 01:31N 49°09' W 122°59'2 4.6
2017-Dec-14 01:01N 49°09' W 123°03'2 3.2
2017-Dec-14 00:30N 49°07' W 123°04'1 3.0
2017-Dec-14 00:01N 49°07' W 123°06'2 3.6
2017-Dec-13 23:30N 49°07' W 123°09'3 5.4
2017-Dec-13 23:01N 49°08' W 123°13'2 4.7
2017-Dec-13 22:30N 49°07' W 123°16'2 4.5
2017-Dec-13 22:01N 49°06' W 123°20'2 4.9
2017-Dec-13 21:30N 49°07' W 123°23'3 6.4
2017-Dec-13 21:00N 49°08' W 123°28'4 8.9
2017-Dec-13 20:31N 49°10' W 123°34'14 3.0
2017-Dec-13 15:38N 49°10' W 123°56'14 3.0
2017-Dec-13 11:04N 49°10' W 123°35'0 4.4
2017-Dec-13 10:58N 49°10' W 123°34'2 4.5
2017-Dec-13 10:30N 49°09' W 123°31'2 4.4
2017-Dec-13 10:00N 49°08' W 123°28'2 4.6
2017-Dec-13 09:30N 49°07' W 123°25'3 6.1
2017-Dec-13 09:00N 49°06' W 123°21'3 6.3
2017-Dec-13 08:31N 49°07' W 123°16'4 6.7
2017-Dec-13 07:59N 49°07' W 123°11'4 7.6
2017-Dec-13 07:30N 49°07' W 123°05'4 8.1
2017-Dec-13 07:00N 49°09' W 123°00'2 4.2
2017-Dec-13 06:30N 49°10' W 122°57'0 0.0
2017-Dec-13 06:00N 49°10' W 122°57'0 0.0
2017-Dec-13 05:30N 49°10' W 122°57'0 0.0
2017-Dec-13 05:00N 49°10' W 122°57'0 0.0
2017-Dec-13 04:30N 49°10' W 122°57'0 0.0
2017-Dec-13 04:01N 49°10' W 122°57'0 0.0
2017-Dec-13 03:30N 49°10' W 122°57'0 0.0
2017-Dec-13 03:00N 49°10' W 122°57'0 0.0
2017-Dec-13 01:04N 49°10' W 122°57'0 0.0
2017-Dec-13 00:55N 49°10' W 122°57'0 0.0
2017-Dec-13 00:31N 49°10' W 122°57'0 0.0
2017-Dec-13 00:01N 49°10' W 122°57'0 0.0
2017-Dec-12 23:30N 49°10' W 122°57'0 0.0
2017-Dec-12 22:57N 49°10' W 122°57'0 0.0
2017-Dec-12 22:24N 49°10' W 122°57'0 0.0
2017-Dec-12 21:54N 49°10' W 122°57'0 0.0
2017-Dec-12 21:28N 49°10' W 122°57'0 0.0
2017-Dec-12 19:03N 49°10' W 122°57'0 0.0
2017-Dec-12 19:00N 49°10' W 122°57'0 0.4
2017-Dec-12 18:31N 49°09' W 122°57'4 8.3
2017-Dec-12 18:01N 49°08' W 123°03'4 7.9
2017-Dec-12 17:30N 49°06' W 123°09'2 2.8
2017-Dec-12 16:44N 49°07' W 123°11'0 0.0
2017-Dec-12 16:26N 49°07' W 123°11'0 0.0
2017-Dec-12 15:59N 49°07' W 123°11'0 0.0
2017-Dec-12 15:22N 49°07' W 123°11'0 0.0
2017-Dec-12 13:00N 49°07' W 123°11'0 0.0
2017-Dec-12 10:17N 49°07' W 123°11'0 0.0
2017-Dec-12 09:56N 49°07' W 123°11'0 0.0
2017-Dec-12 09:10N 49°07' W 123°11'0 1.1
2017-Dec-12 08:59N 49°07' W 123°11'5 9.7
2017-Dec-12 08:30N 49°08' W 123°04'5 9.5
2017-Dec-12 07:59N 49°09' W 122°57'0 0.6
2017-Dec-12 07:31N 49°10' W 122°57'0 0.0
2017-Dec-12 06:59N 49°10' W 122°57'0 0.0
2017-Dec-12 06:30N 49°10' W 122°57'0 0.0
2017-Dec-12 04:31N 49°10' W 122°57'0 3.5
2017-Dec-12 04:30N 49°10' W 122°57'0 0.4
2017-Dec-12 03:58N 49°09' W 122°57'0 0.0
2017-Dec-12 03:31N 49°09' W 122°57'0 0.0
2017-Dec-12 03:01N 49°09' W 122°57'0 0.0
2017-Dec-12 02:31N 49°09' W 122°57'1 2.8
2017-Dec-12 02:01N 49°10' W 122°55'0 0.1
2017-Dec-12 01:31N 49°10' W 122°55'0 0.0
2017-Dec-12 01:01N 49°10' W 122°55'0 0.1
2017-Dec-12 00:31N 49°10' W 122°55'0 0.1
2017-Dec-12 00:00N 49°10' W 122°55'0 0.0
2017-Dec-11 23:31N 49°10' W 122°55'0 0.0
2017-Dec-11 23:01N 49°10' W 122°55'0 0.0
2017-Dec-11 22:31N 49°10' W 122°55'0 0.0
2017-Dec-11 22:00N 49°10' W 122°55'0 0.0
2017-Dec-11 21:30N 49°10' W 122°55'0 0.0
2017-Dec-11 21:00N 49°10' W 122°55'0 0.0
2017-Dec-11 20:31N 49°10' W 122°55'0 0.0
2017-Dec-11 20:00N 49°10' W 122°55'0 0.1
2017-Dec-11 19:30N 49°10' W 122°55'0 0.0
2017-Dec-11 19:01N 49°10' W 122°55'0 0.1
2017-Dec-11 18:30N 49°10' W 122°55'0 0.0
2017-Dec-11 18:00N 49°10' W 122°55'0 0.0
2017-Dec-11 17:28N 49°10' W 122°55'0 0.0
2017-Dec-11 16:59N 49°10' W 122°55'0 0.0
2017-Dec-11 16:30N 49°10' W 122°55'0 0.0
2017-Dec-11 16:00N 49°10' W 122°55'0 0.0
2017-Dec-11 15:25N 49°10' W 122°55'0 0.0
2017-Dec-11 15:00N 49°10' W 122°55'0 0.0
2017-Dec-11 14:30N 49°10' W 122°55'0 0.0
2017-Dec-11 14:00N 49°10' W 122°55'0 0.1
2017-Dec-11 13:30N 49°10' W 122°55'0 0.1
2017-Dec-11 13:00N 49°10' W 122°55'0 0.0
2017-Dec-11 12:30N 49°10' W 122°55'0 0.0
2017-Dec-11 12:00N 49°10' W 122°55'0 0.0
2017-Dec-11 11:30N 49°10' W 122°55'0 0.0
2017-Dec-11 11:01N 49°10' W 122°55'0 0.0
2017-Dec-11 10:30N 49°10' W 122°55'0 0.0
2017-Dec-11 10:00N 49°10' W 122°55'0 0.0
2017-Dec-11 09:30N 49°10' W 122°55'0 0.0
2017-Dec-11 09:00N 49°10' W 122°55'0 0.1
2017-Dec-11 08:28N 49°10' W 122°55'0 0.1
2017-Dec-11 08:00N 49°10' W 122°55'0 0.0
2017-Dec-11 07:29N 49°10' W 122°55'0 0.0
2017-Dec-11 06:59N 49°10' W 122°55'0 0.0
2017-Dec-11 06:28N 49°10' W 122°55'0 0.0
2017-Dec-11 06:00N 49°10' W 122°55'0 0.0
2017-Dec-11 05:30N 49°10' W 122°55'0 0.0
2017-Dec-11 05:00N 49°10' W 122°55'0 0.0
2017-Dec-11 04:30N 49°10' W 122°55'0 0.0
2017-Dec-11 04:00N 49°10' W 122°55'0 0.0
2017-Dec-11 03:29N 49°10' W 122°55'0 0.0
2017-Dec-11 03:00N 49°10' W 122°55'0 0.0
2017-Dec-11 02:29N 49°10' W 122°55'0 0.0
2017-Dec-11 02:00N 49°10' W 122°55'0 0.0
2017-Dec-11 01:30N 49°10' W 122°55'0 0.1
2017-Dec-11 01:00N 49°10' W 122°55'0 0.1
2017-Dec-11 00:30N 49°10' W 122°55'0 0.0
2017-Dec-11 00:00N 49°10' W 122°55'0 0.0
2017-Dec-10 23:30N 49°10' W 122°55'0 0.0
2017-Dec-10 23:00N 49°10' W 122°55'0 0.0
2017-Dec-10 22:30N 49°10' W 122°55'0 0.0
2017-Dec-10 22:01N 49°10' W 122°55'0 0.0
2017-Dec-10 21:31N 49°10' W 122°55'0 0.0
2017-Dec-10 21:01N 49°10' W 122°55'0 0.0
2017-Dec-10 20:30N 49°10' W 122°55'0 0.0
2017-Dec-10 19:04N 49°10' W 122°55'0 0.0
2017-Dec-10 17:18N 49°10' W 122°55'0 0.1
2017-Dec-10 16:50N 49°10' W 122°55'0 0.0
2017-Dec-10 16:24N 49°10' W 122°55'0 0.0
2017-Dec-10 15:58N 49°10' W 122°55'0 0.0
2017-Dec-10 15:30N 49°10' W 122°55'0 0.0
2017-Dec-10 14:59N 49°10' W 122°55'0 0.0
2017-Dec-10 14:29N 49°10' W 122°55'0 0.0
2017-Dec-10 14:00N 49°10' W 122°55'0 0.0
2017-Dec-10 13:28N 49°10' W 122°55'0 0.0
2017-Dec-10 12:59N 49°10' W 122°55'0 0.0
2017-Dec-10 12:28N 49°10' W 122°55'0 0.0
2017-Dec-10 12:00N 49°10' W 122°55'0 0.0
2017-Dec-10 11:30N 49°10' W 122°55'0 0.0
2017-Dec-10 11:00N 49°10' W 122°55'0 0.1
2017-Dec-10 10:30N 49°10' W 122°55'0 0.1
2017-Dec-10 09:59N 49°10' W 122°55'0 0.0
2017-Dec-10 09:29N 49°10' W 122°55'0 0.0
2017-Dec-10 09:00N 49°10' W 122°55'0 0.1
2017-Dec-10 08:31N 49°10' W 122°55'0 0.1
2017-Dec-10 08:00N 49°10' W 122°55'0 0.0
2017-Dec-10 07:31N 49°10' W 122°55'0 0.0
2017-Dec-10 07:01N 49°10' W 122°55'0 0.0
2017-Dec-10 06:30N 49°10' W 122°55'0 0.0
2017-Dec-10 06:00N 49°10' W 122°55'0 0.0
2017-Dec-10 05:31N 49°10' W 122°55'0 0.0
2017-Dec-10 05:00N 49°10' W 122°55'0 0.0
2017-Dec-10 04:30N 49°10' W 122°55'0 0.0
2017-Dec-10 04:00N 49°10' W 122°55'0 0.0
2017-Dec-10 03:31N 49°10' W 122°55'0 0.0
2017-Dec-10 03:00N 49°10' W 122°55'0 0.0
2017-Dec-10 02:30N 49°10' W 122°55'0 0.0
2017-Dec-10 02:01N 49°10' W 122°55'0 0.0
2017-Dec-10 01:27N 49°10' W 122°55'0 0.0
2017-Dec-10 01:01N 49°10' W 122°55'0 0.0
2017-Dec-10 00:30N 49°10' W 122°55'0 0.0
2017-Dec-10 00:00N 49°10' W 122°55'0 0.0
2017-Dec-09 23:30N 49°10' W 122°55'0 0.0
2017-Dec-09 23:00N 49°10' W 122°55'0 0.1
2017-Dec-09 22:29N 49°10' W 122°55'0 0.1
2017-Dec-09 22:00N 49°10' W 122°55'0 0.0
2017-Dec-09 21:29N 49°10' W 122°55'0 0.0
2017-Dec-09 15:31N 49°10' W 122°55'0 0.0
2017-Dec-09 15:13N 49°10' W 122°55'0 1.0
2017-Dec-09 15:01N 49°10' W 122°56'2 4.2
2017-Dec-09 14:30N 49°09' W 122°59'3 5.6
2017-Dec-09 14:01N 49°09' W 123°03'4 7.2
2017-Dec-09 13:30N 49°07' W 123°07'3 6.8
2017-Dec-09 13:00N 49°08' W 123°12'3 6.2
2017-Dec-09 12:31N 49°07' W 123°17'2 3.4
2017-Dec-09 12:01N 49°08' W 123°19'4 8.3
2017-Dec-09 11:30N 49°12' W 123°18'4 7.4
2017-Dec-09 11:01N 49°16' W 123°18'0 0.4
2017-Dec-09 10:31N 49°15' W 123°18'0 0.3
2017-Dec-09 10:00N 49°16' W 123°18'1 2.8
2017-Dec-09 09:31N 49°16' W 123°20'3 6.2
2017-Dec-09 09:00N 49°15' W 123°24'3 6.2
2017-Dec-09 08:30N 49°15' W 123°29'3 6.4
2017-Dec-09 07:57N 49°14' W 123°34'3 6.0
2017-Dec-09 07:30N 49°14' W 123°39'7 0.7
2017-Dec-08 21:50N 49°09' W 123°31'3 5.3
2017-Dec-08 21:13N 49°08' W 123°26'1 5.1
2017-Dec-08 21:00N 49°07' W 123°25'3 5.1
2017-Dec-08 20:26N 49°06' W 123°21'2 5.0
2017-Dec-08 20:00N 49°07' W 123°17'3 5.3
2017-Dec-08 19:27N 49°08' W 123°13'2 2.7
2017-Dec-08 18:48N 49°07' W 123°11'1 4.1
2017-Dec-08 18:30N 49°07' W 123°09'2 3.7
2017-Dec-08 18:00N 49°07' W 123°06'3 3.3
2017-Dec-08 17:12N 49°08' W 123°03'1 3.5
2017-Dec-08 16:52N 49°09' W 123°02'1 3.4
2017-Dec-08 16:30N 49°09' W 122°60'2 3.2
2017-Dec-08 16:00N 49°09' W 122°57'0 0.2
2017-Dec-08 15:22N 49°09' W 122°57'1 3.6
2017-Dec-08 15:00N 49°10' W 122°56'3 5.2
2017-Dec-08 14:30N 49°13' W 122°54'0 0.2
2017-Dec-08 14:00N 49°12' W 122°54'1 0.1
2017-Dec-08 08:45N 49°12' W 122°55'0 0.1
2017-Dec-08 04:40N 49°12' W 122°55'1 3.7
2017-Dec-08 04:30N 49°11' W 122°55'1 1.0
2017-Dec-08 04:00N 49°12' W 122°54'1 1.1
2017-Dec-08 03:30N 49°11' W 122°55'2 4.2
2017-Dec-08 03:00N 49°09' W 122°57'2 3.5
2017-Dec-08 02:30N 49°09' W 122°59'3 5.5
2017-Dec-08 02:00N 49°08' W 123°03'3 5.2
2017-Dec-08 01:30N 49°07' W 123°07'3 4.8
2017-Dec-08 00:58N 49°07' W 123°10'2 4.9
2017-Dec-08 00:30N 49°08' W 123°14'3 5.0
2017-Dec-07 23:55N 49°06' W 123°17'5 5.7
2017-Dec-07 23:06N 49°04' W 123°24'15 2.4
2017-Dec-07 16:56N 48°53' W 123°37'1 3.1
2017-Dec-07 16:30N 48°54' W 123°36'6 6.4
2017-Dec-07 15:34N 48°60' W 123°36'4 4.6
2017-Dec-07 14:47N 49°03' W 123°35'1 2.8
2017-Dec-07 14:19N 49°05' W 123°35'1 0.3
2017-Dec-07 11:09N 49°04' W 123°34'1 2.9
2017-Dec-07 10:42N 49°03' W 123°33'1 2.8
2017-Dec-07 10:28N 49°03' W 123°32'2 2.9
2017-Dec-07 09:56N 49°03' W 123°29'1 3.1
2017-Dec-07 09:27N 49°04' W 123°27'2 3.6
2017-Dec-07 09:00N 49°04' W 123°25'3 5.5
2017-Dec-07 08:30N 49°05' W 123°21'4 7.8
2017-Dec-07 07:58N 49°07' W 123°15'4 6.8
2017-Dec-07 07:26N 49°07' W 123°10'4 7.2
2017-Dec-07 06:56N 49°07' W 123°04'3 7.1
2017-Dec-07 06:30N 49°09' W 123°01'2 4.6
2017-Dec-07 06:00N 49°09' W 122°57'  

Dump ship's entire track history